sensor_id;sensor_type;location;lat;lon;timestamp;P1;durP1;ratioP1;P2;durP2;ratioP2
4650;SDS011;2338;49.602;8.722;2023-02-28T00:00:27;4.25;;;3.05;;
4650;SDS011;2338;49.602;8.722;2023-02-28T00:03:12;5.00;;;2.90;;
4650;SDS011;2338;49.602;8.722;2023-02-28T00:05:58;3.17;;;2.55;;
4650;SDS011;2338;49.602;8.722;2023-02-28T00:08:44;3.72;;;2.75;;
4650;SDS011;2338;49.602;8.722;2023-02-28T00:11:31;5.07;;;2.90;;
4650;SDS011;2338;49.602;8.722;2023-02-28T00:14:16;3.55;;;2.90;;
4650;SDS011;2338;49.602;8.722;2023-02-28T00:17:02;3.67;;;2.70;;
4650;SDS011;2338;49.602;8.722;2023-02-28T00:19:48;4.65;;;3.17;;
4650;SDS011;2338;49.602;8.722;2023-02-28T00:22:34;3.75;;;3.10;;
4650;SDS011;2338;49.602;8.722;2023-02-28T00:25:21;4.35;;;2.78;;
4650;SDS011;2338;49.602;8.722;2023-02-28T00:28:09;5.25;;;3.42;;
4650;SDS011;2338;49.602;8.722;2023-02-28T00:30:54;5.35;;;3.10;;
4650;SDS011;2338;49.602;8.722;2023-02-28T00:33:41;4.50;;;3.08;;
4650;SDS011;2338;49.602;8.722;2023-02-28T00:36:26;4.38;;;3.08;;
4650;SDS011;2338;49.602;8.722;2023-02-28T00:39:12;4.43;;;3.30;;
4650;SDS011;2338;49.602;8.722;2023-02-28T00:41:58;6.75;;;3.50;;
4650;SDS011;2338;49.602;8.722;2023-02-28T00:44:44;4.50;;;3.60;;
4650;SDS011;2338;49.602;8.722;2023-02-28T00:47:30;5.65;;;3.30;;
4650;SDS011;2338;49.602;8.722;2023-02-28T00:50:16;4.20;;;3.10;;
4650;SDS011;2338;49.602;8.722;2023-02-28T00:53:02;6.18;;;3.47;;
4650;SDS011;2338;49.602;8.722;2023-02-28T00:55:48;5.07;;;3.25;;
4650;SDS011;2338;49.602;8.722;2023-02-28T00:58:34;5.97;;;4.00;;
4650;SDS011;2338;49.602;8.722;2023-02-28T01:01:20;4.93;;;3.55;;
4650;SDS011;2338;49.602;8.722;2023-02-28T01:04:06;5.25;;;3.70;;
4650;SDS011;2338;49.602;8.722;2023-02-28T01:06:52;6.40;;;3.83;;
4650;SDS011;2338;49.602;8.722;2023-02-28T01:09:38;4.43;;;3.50;;
4650;SDS011;2338;49.602;8.722;2023-02-28T01:12:23;5.63;;;3.60;;
4650;SDS011;2338;49.602;8.722;2023-02-28T01:15:10;5.47;;;3.58;;
4650;SDS011;2338;49.602;8.722;2023-02-28T01:17:57;12.43;;;3.72;;
4650;SDS011;2338;49.602;8.722;2023-02-28T01:20:43;5.38;;;4.07;;
4650;SDS011;2338;49.602;8.722;2023-02-28T01:23:29;8.10;;;3.55;;
4650;SDS011;2338;49.602;8.722;2023-02-28T01:26:16;6.03;;;3.92;;
4650;SDS011;2338;49.602;8.722;2023-02-28T01:29:03;5.80;;;4.25;;
4650;SDS011;2338;49.602;8.722;2023-02-28T01:31:49;7.05;;;3.75;;
4650;SDS011;2338;49.602;8.722;2023-02-28T01:34:36;4.78;;;3.72;;
4650;SDS011;2338;49.602;8.722;2023-02-28T01:37:22;5.78;;;4.10;;
4650;SDS011;2338;49.602;8.722;2023-02-28T01:40:08;5.43;;;3.90;;
4650;SDS011;2338;49.602;8.722;2023-02-28T01:42:54;4.05;;;3.35;;
4650;SDS011;2338;49.602;8.722;2023-02-28T01:45:40;6.13;;;4.47;;
4650;SDS011;2338;49.602;8.722;2023-02-28T01:48:27;4.55;;;4.00;;
4650;SDS011;2338;49.602;8.722;2023-02-28T01:51:20;4.65;;;4.15;;
4650;SDS011;2338;49.602;8.722;2023-02-28T01:54:10;4.60;;;4.15;;
4650;SDS011;2338;49.602;8.722;2023-02-28T01:57:01;7.35;;;4.22;;
4650;SDS011;2338;49.602;8.722;2023-02-28T01:59:50;8.32;;;4.63;;
4650;SDS011;2338;49.602;8.722;2023-02-28T02:02:42;5.50;;;3.83;;
4650;SDS011;2338;49.602;8.722;2023-02-28T02:05:31;4.10;;;3.63;;
4650;SDS011;2338;49.602;8.722;2023-02-28T02:08:19;4.75;;;4.13;;
4650;SDS011;2338;49.602;8.722;2023-02-28T02:11:08;5.40;;;4.32;;
4650;SDS011;2338;49.602;8.722;2023-02-28T02:14:19;5.30;;;4.10;;
4650;SDS011;2338;49.602;8.722;2023-02-28T02:17:27;7.45;;;4.78;;
4650;SDS011;2338;49.602;8.722;2023-02-28T02:27:08;6.63;;;3.97;;
4650;SDS011;2338;49.602;8.722;2023-02-28T02:30:29;6.10;;;4.28;;
4650;SDS011;2338;49.602;8.722;2023-02-28T02:33:45;13.00;;;4.47;;
4650;SDS011;2338;49.602;8.722;2023-02-28T02:36:51;9.15;;;4.72;;
4650;SDS011;2338;49.602;8.722;2023-02-28T02:39:47;5.78;;;4.43;;
4650;SDS011;2338;49.602;8.722;2023-02-28T02:42:39;6.57;;;5.03;;
4650;SDS011;2338;49.602;8.722;2023-02-28T02:45:31;5.93;;;4.18;;
4650;SDS011;2338;49.602;8.722;2023-02-28T02:48:21;8.45;;;4.82;;
4650;SDS011;2338;49.602;8.722;2023-02-28T02:51:13;6.10;;;3.83;;
4650;SDS011;2338;49.602;8.722;2023-02-28T02:54:02;5.38;;;4.38;;
4650;SDS011;2338;49.602;8.722;2023-02-28T02:56:53;6.78;;;4.63;;
4650;SDS011;2338;49.602;8.722;2023-02-28T02:59:43;5.28;;;4.20;;
4650;SDS011;2338;49.602;8.722;2023-02-28T03:02:29;5.75;;;4.20;;
4650;SDS011;2338;49.602;8.722;2023-02-28T03:05:19;10.02;;;5.38;;
4650;SDS011;2338;49.602;8.722;2023-02-28T03:08:10;5.10;;;4.43;;
4650;SDS011;2338;49.602;8.722;2023-02-28T03:10:56;6.90;;;4.50;;
4650;SDS011;2338;49.602;8.722;2023-02-28T03:13:47;4.75;;;4.28;;
4650;SDS011;2338;49.602;8.722;2023-02-28T03:16:48;5.10;;;4.55;;
4650;SDS011;2338;49.602;8.722;2023-02-28T03:19:47;7.45;;;5.05;;
4650;SDS011;2338;49.602;8.722;2023-02-28T03:22:51;6.03;;;4.53;;
4650;SDS011;2338;49.602;8.722;2023-02-28T03:25:46;7.70;;;4.55;;
4650;SDS011;2338;49.602;8.722;2023-02-28T03:28:41;5.32;;;4.80;;
4650;SDS011;2338;49.602;8.722;2023-02-28T03:31:30;5.85;;;3.83;;
4650;SDS011;2338;49.602;8.722;2023-02-28T03:34:22;5.88;;;4.30;;
4650;SDS011;2338;49.602;8.722;2023-02-28T03:37:11;8.80;;;5.18;;
4650;SDS011;2338;49.602;8.722;2023-02-28T03:40:01;10.13;;;4.35;;
4650;SDS011;2338;49.602;8.722;2023-02-28T03:42:53;7.78;;;4.57;;
4650;SDS011;2338;49.602;8.722;2023-02-28T03:45:44;5.55;;;4.10;;
4650;SDS011;2338;49.602;8.722;2023-02-28T03:48:31;6.45;;;4.95;;
4650;SDS011;2338;49.602;8.722;2023-02-28T03:51:22;5.13;;;4.63;;
4650;SDS011;2338;49.602;8.722;2023-02-28T03:54:10;7.13;;;5.35;;
4650;SDS011;2338;49.602;8.722;2023-02-28T03:57:02;4.80;;;4.15;;
4650;SDS011;2338;49.602;8.722;2023-02-28T03:59:57;6.38;;;5.70;;
4650;SDS011;2338;49.602;8.722;2023-02-28T04:02:47;6.00;;;4.45;;
4650;SDS011;2338;49.602;8.722;2023-02-28T04:05:43;5.18;;;4.40;;
4650;SDS011;2338;49.602;8.722;2023-02-28T04:08:36;4.95;;;4.38;;
4650;SDS011;2338;49.602;8.722;2023-02-28T04:11:23;12.18;;;4.95;;
4650;SDS011;2338;49.602;8.722;2023-02-28T04:14:12;6.63;;;4.80;;
4650;SDS011;2338;49.602;8.722;2023-02-28T04:16:59;4.70;;;4.00;;
4650;SDS011;2338;49.602;8.722;2023-02-28T04:19:45;5.68;;;4.45;;
4650;SDS011;2338;49.602;8.722;2023-02-28T04:22:30;5.85;;;4.30;;
4650;SDS011;2338;49.602;8.722;2023-02-28T04:25:16;7.50;;;4.75;;
4650;SDS011;2338;49.602;8.722;2023-02-28T04:28:02;5.82;;;4.38;;
4650;SDS011;2338;49.602;8.722;2023-02-28T04:30:53;5.50;;;4.47;;
4650;SDS011;2338;49.602;8.722;2023-02-28T04:33:41;5.57;;;4.38;;
4650;SDS011;2338;49.602;8.722;2023-02-28T04:36:26;5.75;;;4.82;;
4650;SDS011;2338;49.602;8.722;2023-02-28T04:39:12;11.18;;;5.43;;
4650;SDS011;2338;49.602;8.722;2023-02-28T04:41:58;5.78;;;4.55;;
4650;SDS011;2338;49.602;8.722;2023-02-28T04:44:44;7.30;;;4.30;;
4650;SDS011;2338;49.602;8.722;2023-02-28T04:47:30;6.53;;;5.00;;
4650;SDS011;2338;49.602;8.722;2023-02-28T04:50:17;7.30;;;5.35;;
4650;SDS011;2338;49.602;8.722;2023-02-28T04:53:03;7.50;;;6.10;;
4650;SDS011;2338;49.602;8.722;2023-02-28T04:55:49;6.60;;;4.47;;
4650;SDS011;2338;49.602;8.722;2023-02-28T04:58:35;8.45;;;4.20;;
4650;SDS011;2338;49.602;8.722;2023-02-28T05:01:22;6.75;;;5.10;;
4650;SDS011;2338;49.602;8.722;2023-02-28T05:04:09;6.75;;;5.60;;
4650;SDS011;2338;49.602;8.722;2023-02-28T05:06:56;9.77;;;5.78;;
4650;SDS011;2338;49.602;8.722;2023-02-28T05:09:42;8.02;;;4.78;;
4650;SDS011;2338;49.602;8.722;2023-02-28T05:12:27;7.18;;;4.93;;
4650;SDS011;2338;49.602;8.722;2023-02-28T05:15:14;5.22;;;4.13;;
4650;SDS011;2338;49.602;8.722;2023-02-28T05:18:00;5.97;;;4.82;;
4650;SDS011;2338;49.602;8.722;2023-02-28T05:20:46;7.63;;;4.82;;
4650;SDS011;2338;49.602;8.722;2023-02-28T05:23:33;9.23;;;5.80;;
4650;SDS011;2338;49.602;8.722;2023-02-28T05:26:19;7.32;;;5.00;;
4650;SDS011;2338;49.602;8.722;2023-02-28T05:29:05;6.22;;;4.63;;
4650;SDS011;2338;49.602;8.722;2023-02-28T05:31:50;8.20;;;5.30;;
4650;SDS011;2338;49.602;8.722;2023-02-28T05:34:36;6.63;;;5.30;;
4650;SDS011;2338;49.602;8.722;2023-02-28T05:37:22;7.00;;;4.57;;
4650;SDS011;2338;49.602;8.722;2023-02-28T05:40:10;6.35;;;5.00;;
4650;SDS011;2338;49.602;8.722;2023-02-28T05:42:56;6.45;;;5.13;;
4650;SDS011;2338;49.602;8.722;2023-02-28T05:45:42;8.43;;;5.20;;
4650;SDS011;2338;49.602;8.722;2023-02-28T05:48:28;5.82;;;4.70;;
4650;SDS011;2338;49.602;8.722;2023-02-28T05:51:13;9.35;;;5.22;;
4650;SDS011;2338;49.602;8.722;2023-02-28T05:53:59;6.63;;;5.30;;
4650;SDS011;2338;49.602;8.722;2023-02-28T05:56:47;11.82;;;5.65;;
4650;SDS011;2338;49.602;8.722;2023-02-28T05:59:32;5.88;;;5.28;;
4650;SDS011;2338;49.602;8.722;2023-02-28T06:02:18;6.35;;;5.00;;
4650;SDS011;2338;49.602;8.722;2023-02-28T06:05:04;7.10;;;5.80;;
4650;SDS011;2338;49.602;8.722;2023-02-28T06:07:50;7.57;;;4.70;;
4650;SDS011;2338;49.602;8.722;2023-02-28T06:10:36;5.47;;;4.90;;
4650;SDS011;2338;49.602;8.722;2023-02-28T06:13:23;8.35;;;6.65;;
4650;SDS011;2338;49.602;8.722;2023-02-28T06:16:09;9.77;;;5.70;;
4650;SDS011;2338;49.602;8.722;2023-02-28T06:18:56;8.18;;;6.07;;
4650;SDS011;2338;49.602;8.722;2023-02-28T06:21:42;8.05;;;5.38;;
4650;SDS011;2338;49.602;8.722;2023-02-28T06:24:28;13.38;;;5.50;;
4650;SDS011;2338;49.602;8.722;2023-02-28T06:27:14;9.25;;;7.15;;
4650;SDS011;2338;49.602;8.722;2023-02-28T06:30:01;6.65;;;5.90;;
4650;SDS011;2338;49.602;8.722;2023-02-28T06:32:47;9.35;;;6.10;;
4650;SDS011;2338;49.602;8.722;2023-02-28T06:35:33;7.63;;;6.13;;
4650;SDS011;2338;49.602;8.722;2023-02-28T06:38:19;8.90;;;6.57;;
4650;SDS011;2338;49.602;8.722;2023-02-28T06:41:05;6.90;;;6.05;;
4650;SDS011;2338;49.602;8.722;2023-02-28T06:43:51;9.63;;;6.40;;
4650;SDS011;2338;49.602;8.722;2023-02-28T06:46:39;8.50;;;6.25;;
4650;SDS011;2338;49.602;8.722;2023-02-28T06:49:25;7.38;;;5.53;;
4650;SDS011;2338;49.602;8.722;2023-02-28T06:52:11;10.80;;;6.13;;
4650;SDS011;2338;49.602;8.722;2023-02-28T06:54:56;8.57;;;5.20;;
4650;SDS011;2338;49.602;8.722;2023-02-28T06:57:44;7.60;;;5.07;;
4650;SDS011;2338;49.602;8.722;2023-02-28T07:00:30;8.30;;;6.18;;
4650;SDS011;2338;49.602;8.722;2023-02-28T07:03:17;8.52;;;6.15;;
4650;SDS011;2338;49.602;8.722;2023-02-28T07:06:04;7.72;;;6.20;;
4650;SDS011;2338;49.602;8.722;2023-02-28T07:08:50;7.57;;;5.60;;
4650;SDS011;2338;49.602;8.722;2023-02-28T07:11:37;8.73;;;6.75;;
4650;SDS011;2338;49.602;8.722;2023-02-28T07:14:22;8.45;;;5.93;;
4650;SDS011;2338;49.602;8.722;2023-02-28T07:17:08;8.27;;;5.72;;
4650;SDS011;2338;49.602;8.722;2023-02-28T07:19:57;8.60;;;6.50;;
4650;SDS011;2338;49.602;8.722;2023-02-28T07:22:43;9.25;;;6.07;;
4650;SDS011;2338;49.602;8.722;2023-02-28T07:25:28;8.52;;;6.35;;
4650;SDS011;2338;49.602;8.722;2023-02-28T07:28:14;8.73;;;6.55;;
4650;SDS011;2338;49.602;8.722;2023-02-28T07:31:03;8.02;;;6.15;;
4650;SDS011;2338;49.602;8.722;2023-02-28T07:33:49;6.97;;;6.05;;
4650;SDS011;2338;49.602;8.722;2023-02-28T07:36:36;8.38;;;6.25;;
4650;SDS011;2338;49.602;8.722;2023-02-28T07:39:22;8.57;;;6.18;;
4650;SDS011;2338;49.602;8.722;2023-02-28T07:42:07;8.82;;;6.30;;
4650;SDS011;2338;49.602;8.722;2023-02-28T07:44:55;8.27;;;6.22;;
4650;SDS011;2338;49.602;8.722;2023-02-28T07:47:41;7.90;;;6.40;;
4650;SDS011;2338;49.602;8.722;2023-02-28T07:50:27;8.30;;;5.65;;
4650;SDS011;2338;49.602;8.722;2023-02-28T07:53:15;8.23;;;6.53;;
4650;SDS011;2338;49.602;8.722;2023-02-28T07:56:01;14.43;;;6.60;;
4650;SDS011;2338;49.602;8.722;2023-02-28T07:58:48;15.52;;;7.95;;
4650;SDS011;2338;49.602;8.722;2023-02-28T08:01:33;10.88;;;6.45;;
4650;SDS011;2338;49.602;8.722;2023-02-28T08:04:19;7.20;;;5.95;;
4650;SDS011;2338;49.602;8.722;2023-02-28T08:07:05;10.65;;;6.68;;
4650;SDS011;2338;49.602;8.722;2023-02-28T08:09:51;9.15;;;6.28;;
4650;SDS011;2338;49.602;8.722;2023-02-28T08:12:37;11.30;;;6.45;;
4650;SDS011;2338;49.602;8.722;2023-02-28T08:15:22;7.22;;;6.05;;
4650;SDS011;2338;49.602;8.722;2023-02-28T08:18:08;8.27;;;5.55;;
4650;SDS011;2338;49.602;8.722;2023-02-28T08:20:54;11.43;;;6.43;;
4650;SDS011;2338;49.602;8.722;2023-02-28T08:23:41;9.85;;;6.65;;
4650;SDS011;2338;49.602;8.722;2023-02-28T08:26:28;9.73;;;7.00;;
4650;SDS011;2338;49.602;8.722;2023-02-28T08:29:14;7.38;;;5.80;;
4650;SDS011;2338;49.602;8.722;2023-02-28T08:31:59;10.82;;;6.57;;
4650;SDS011;2338;49.602;8.722;2023-02-28T08:34:45;14.35;;;7.50;;
4650;SDS011;2338;49.602;8.722;2023-02-28T08:37:31;9.38;;;6.90;;
4650;SDS011;2338;49.602;8.722;2023-02-28T08:40:17;8.75;;;5.95;;
4650;SDS011;2338;49.602;8.722;2023-02-28T08:43:04;10.93;;;7.75;;
4650;SDS011;2338;49.602;8.722;2023-02-28T08:45:51;10.85;;;7.50;;
4650;SDS011;2338;49.602;8.722;2023-02-28T08:48:36;8.35;;;6.47;;
4650;SDS011;2338;49.602;8.722;2023-02-28T08:51:22;8.85;;;6.07;;
4650;SDS011;2338;49.602;8.722;2023-02-28T08:54:10;9.90;;;6.13;;
4650;SDS011;2338;49.602;8.722;2023-02-28T08:56:56;8.63;;;6.30;;
4650;SDS011;2338;49.602;8.722;2023-02-28T08:59:44;11.25;;;7.22;;
4650;SDS011;2338;49.602;8.722;2023-02-28T09:02:29;8.85;;;6.25;;
4650;SDS011;2338;49.602;8.722;2023-02-28T09:05:15;10.32;;;6.43;;
4650;SDS011;2338;49.602;8.722;2023-02-28T09:08:01;11.30;;;6.65;;
4650;SDS011;2338;49.602;8.722;2023-02-28T09:10:47;11.45;;;7.03;;
4650;SDS011;2338;49.602;8.722;2023-02-28T09:13:33;8.45;;;6.97;;
4650;SDS011;2338;49.602;8.722;2023-02-28T09:16:20;8.55;;;6.40;;
4650;SDS011;2338;49.602;8.722;2023-02-28T09:19:06;9.57;;;6.18;;
4650;SDS011;2338;49.602;8.722;2023-02-28T09:21:55;8.88;;;6.30;;
4650;SDS011;2338;49.602;8.722;2023-02-28T09:24:40;10.77;;;7.15;;
4650;SDS011;2338;49.602;8.722;2023-02-28T09:27:28;13.27;;;7.20;;
4650;SDS011;2338;49.602;8.722;2023-02-28T09:30:13;7.55;;;6.13;;
4650;SDS011;2338;49.602;8.722;2023-02-28T09:33:01;12.57;;;6.57;;
4650;SDS011;2338;49.602;8.722;2023-02-28T09:35:47;9.88;;;6.68;;
4650;SDS011;2338;49.602;8.722;2023-02-28T09:38:33;8.32;;;6.35;;
4650;SDS011;2338;49.602;8.722;2023-02-28T09:41:20;12.35;;;8.05;;
4650;SDS011;2338;49.602;8.722;2023-02-28T09:44:06;8.82;;;7.47;;
4650;SDS011;2338;49.602;8.722;2023-02-28T09:46:59;9.35;;;7.18;;
4650;SDS011;2338;49.602;8.722;2023-02-28T09:49:51;11.73;;;7.55;;
4650;SDS011;2338;49.602;8.722;2023-02-28T09:52:37;10.65;;;7.18;;
4650;SDS011;2338;49.602;8.722;2023-02-28T09:55:26;8.38;;;7.07;;
4650;SDS011;2338;49.602;8.722;2023-02-28T09:58:18;11.30;;;7.55;;
4650;SDS011;2338;49.602;8.722;2023-02-28T10:01:09;12.43;;;6.55;;
4650;SDS011;2338;49.602;8.722;2023-02-28T10:04:03;8.15;;;6.30;;
4650;SDS011;2338;49.602;8.722;2023-02-28T10:06:57;10.00;;;7.40;;
4650;SDS011;2338;49.602;8.722;2023-02-28T10:09:43;9.43;;;6.80;;
4650;SDS011;2338;49.602;8.722;2023-02-28T10:12:31;9.30;;;6.95;;
4650;SDS011;2338;49.602;8.722;2023-02-28T10:15:18;8.57;;;7.18;;
4650;SDS011;2338;49.602;8.722;2023-02-28T10:18:08;10.18;;;6.63;;
4650;SDS011;2338;49.602;8.722;2023-02-28T10:20:57;12.50;;;7.25;;
4650;SDS011;2338;49.602;8.722;2023-02-28T10:23:45;10.18;;;7.18;;
4650;SDS011;2338;49.602;8.722;2023-02-28T10:26:33;8.45;;;6.78;;
4650;SDS011;2338;49.602;8.722;2023-02-28T10:29:18;10.60;;;7.50;;
4650;SDS011;2338;49.602;8.722;2023-02-28T10:32:04;12.80;;;8.60;;
4650;SDS011;2338;49.602;8.722;2023-02-28T10:34:51;10.25;;;7.10;;
4650;SDS011;2338;49.602;8.722;2023-02-28T10:37:40;10.32;;;7.95;;
4650;SDS011;2338;49.602;8.722;2023-02-28T10:40:33;11.75;;;7.97;;
4650;SDS011;2338;49.602;8.722;2023-02-28T10:43:21;11.55;;;7.80;;
4650;SDS011;2338;49.602;8.722;2023-02-28T10:46:13;11.88;;;7.95;;
4650;SDS011;2338;49.602;8.722;2023-02-28T10:49:13;12.10;;;7.80;;
4650;SDS011;2338;49.602;8.722;2023-02-28T10:52:02;10.10;;;7.20;;
4650;SDS011;2338;49.602;8.722;2023-02-28T10:54:48;11.70;;;7.18;;
4650;SDS011;2338;49.602;8.722;2023-02-28T10:57:34;11.40;;;7.55;;
4650;SDS011;2338;49.602;8.722;2023-02-28T11:00:22;11.50;;;7.30;;
4650;SDS011;2338;49.602;8.722;2023-02-28T11:03:13;9.38;;;7.75;;
4650;SDS011;2338;49.602;8.722;2023-02-28T11:06:13;8.30;;;7.15;;
4650;SDS011;2338;49.602;8.722;2023-02-28T11:09:01;28.17;;;8.85;;
4650;SDS011;2338;49.602;8.722;2023-02-28T11:11:49;10.20;;;7.93;;
4650;SDS011;2338;49.602;8.722;2023-02-28T11:14:40;10.95;;;7.88;;
4650;SDS011;2338;49.602;8.722;2023-02-28T11:17:34;12.50;;;8.57;;
4650;SDS011;2338;49.602;8.722;2023-02-28T11:20:20;11.07;;;7.95;;
4650;SDS011;2338;49.602;8.722;2023-02-28T11:23:10;12.98;;;8.27;;
4650;SDS011;2338;49.602;8.722;2023-02-28T11:25:59;9.07;;;7.32;;
4650;SDS011;2338;49.602;8.722;2023-02-28T11:28:48;8.13;;;6.97;;
4650;SDS011;2338;49.602;8.722;2023-02-28T11:32:07;14.27;;;7.63;;
4650;SDS011;2338;49.602;8.722;2023-02-28T11:35:02;8.90;;;7.30;;
4650;SDS011;2338;49.602;8.722;2023-02-28T11:37:58;9.00;;;6.90;;
4650;SDS011;2338;49.602;8.722;2023-02-28T11:40:46;11.20;;;7.83;;
4650;SDS011;2338;49.602;8.722;2023-02-28T11:43:39;13.02;;;7.43;;
4650;SDS011;2338;49.602;8.722;2023-02-28T11:46:37;10.70;;;8.52;;
4650;SDS011;2338;49.602;8.722;2023-02-28T11:49:30;10.87;;;8.23;;
4650;SDS011;2338;49.602;8.722;2023-02-28T11:52:26;11.40;;;8.63;;
4650;SDS011;2338;49.602;8.722;2023-02-28T11:55:24;8.57;;;7.00;;
4650;SDS011;2338;49.602;8.722;2023-02-28T11:58:23;10.27;;;8.13;;
4650;SDS011;2338;49.602;8.722;2023-02-28T12:01:22;13.98;;;7.63;;
4650;SDS011;2338;49.602;8.722;2023-02-28T12:04:24;12.40;;;7.55;;
4650;SDS011;2338;49.602;8.722;2023-02-28T12:07:15;9.23;;;7.83;;
4650;SDS011;2338;49.602;8.722;2023-02-28T12:10:11;10.43;;;8.10;;
4650;SDS011;2338;49.602;8.722;2023-02-28T12:13:08;10.97;;;8.03;;
4650;SDS011;2338;49.602;8.722;2023-02-28T12:16:11;11.07;;;8.27;;
4650;SDS011;2338;49.602;8.722;2023-02-28T12:19:18;11.90;;;8.40;;
4650;SDS011;2338;49.602;8.722;2023-02-28T12:22:12;15.17;;;8.23;;
4650;SDS011;2338;49.602;8.722;2023-02-28T12:25:22;12.80;;;8.77;;
4650;SDS011;2338;49.602;8.722;2023-02-28T12:28:35;11.13;;;8.03;;
4650;SDS011;2338;49.602;8.722;2023-02-28T12:31:27;9.90;;;8.70;;
4650;SDS011;2338;49.602;8.722;2023-02-28T12:34:19;9.27;;;7.40;;
4650;SDS011;2338;49.602;8.722;2023-02-28T12:37:08;11.40;;;8.07;;
4650;SDS011;2338;49.602;8.722;2023-02-28T12:40:04;14.20;;;8.50;;
4650;SDS011;2338;49.602;8.722;2023-02-28T12:42:56;13.97;;;7.37;;
4650;SDS011;2338;49.602;8.722;2023-02-28T12:45:45;9.10;;;7.63;;
4650;SDS011;2338;49.602;8.722;2023-02-28T12:48:36;10.87;;;8.30;;
4650;SDS011;2338;49.602;8.722;2023-02-28T12:51:25;11.80;;;7.90;;
4650;SDS011;2338;49.602;8.722;2023-02-28T12:54:14;9.23;;;8.07;;
4650;SDS011;2338;49.602;8.722;2023-02-28T12:57:08;13.90;;;7.70;;
4650;SDS011;2338;49.602;8.722;2023-02-28T12:59:59;13.57;;;7.90;;
4650;SDS011;2338;49.602;8.722;2023-02-28T13:02:58;13.83;;;8.07;;
4650;SDS011;2338;49.602;8.722;2023-02-28T13:06:05;12.23;;;8.60;;
4650;SDS011;2338;49.602;8.722;2023-02-28T13:09:05;12.77;;;7.87;;
4650;SDS011;2338;49.602;8.722;2023-02-28T13:11:54;13.97;;;7.93;;
4650;SDS011;2338;49.602;8.722;2023-02-28T13:14:42;12.53;;;7.53;;
4650;SDS011;2338;49.602;8.722;2023-02-28T13:17:28;9.23;;;7.17;;
4650;SDS011;2338;49.602;8.722;2023-02-28T13:20:15;16.90;;;8.23;;
4650;SDS011;2338;49.602;8.722;2023-02-28T13:23:03;10.07;;;8.07;;
4650;SDS011;2338;49.602;8.722;2023-02-28T13:25:52;11.93;;;8.57;;
4650;SDS011;2338;49.602;8.722;2023-02-28T13:41:46;9.47;;;7.47;;
4650;SDS011;2338;49.602;8.722;2023-02-28T13:44:32;12.13;;;8.10;;
4650;SDS011;2338;49.602;8.722;2023-02-28T13:47:59;11.80;;;8.80;;
4650;SDS011;2338;49.602;8.722;2023-02-28T13:50:46;30.27;;;9.80;;
4650;SDS011;2338;49.602;8.722;2023-02-28T13:53:34;12.37;;;9.07;;
4650;SDS011;2338;49.602;8.722;2023-02-28T13:56:36;10.23;;;7.80;;
4650;SDS011;2338;49.602;8.722;2023-02-28T13:59:31;16.37;;;8.80;;
4650;SDS011;2338;49.602;8.722;2023-02-28T14:05:34;16.63;;;8.83;;
4650;SDS011;2338;49.602;8.722;2023-02-28T14:08:20;9.73;;;7.67;;
4650;SDS011;2338;49.602;8.722;2023-02-28T14:11:08;8.60;;;7.40;;
4650;SDS011;2338;49.602;8.722;2023-02-28T14:14:09;8.20;;;6.97;;
4650;SDS011;2338;49.602;8.722;2023-02-28T14:17:16;9.93;;;7.53;;
4650;SDS011;2338;49.602;8.722;2023-02-28T14:20:03;12.03;;;7.83;;
4650;SDS011;2338;49.602;8.722;2023-02-28T14:22:51;10.00;;;7.77;;
4650;SDS011;2338;49.602;8.722;2023-02-28T14:25:44;10.50;;;7.97;;
4650;SDS011;2338;49.602;8.722;2023-02-28T14:28:43;12.13;;;8.20;;
4650;SDS011;2338;49.602;8.722;2023-02-28T14:31:48;11.23;;;7.90;;
4650;SDS011;2338;49.602;8.722;2023-02-28T14:34:44;12.90;;;8.43;;
4650;SDS011;2338;49.602;8.722;2023-02-28T14:37:38;13.47;;;8.17;;
4650;SDS011;2338;49.602;8.722;2023-02-28T14:40:27;12.17;;;8.77;;
4650;SDS011;2338;49.602;8.722;2023-02-28T14:43:19;10.30;;;7.87;;
4650;SDS011;2338;49.602;8.722;2023-02-28T14:46:06;11.97;;;8.50;;
4650;SDS011;2338;49.602;8.722;2023-02-28T14:48:52;12.90;;;8.30;;
4650;SDS011;2338;49.602;8.722;2023-02-28T14:51:39;11.13;;;8.27;;
4650;SDS011;2338;49.602;8.722;2023-02-28T14:54:25;15.87;;;9.13;;
4650;SDS011;2338;49.602;8.722;2023-02-28T14:57:20;9.73;;;7.17;;
4650;SDS011;2338;49.602;8.722;2023-02-28T15:00:11;11.30;;;8.37;;
4650;SDS011;2338;49.602;8.722;2023-02-28T15:03:00;11.10;;;8.83;;
4650;SDS011;2338;49.602;8.722;2023-02-28T15:06:02;10.40;;;8.60;;
4650;SDS011;2338;49.602;8.722;2023-02-28T15:08:56;9.90;;;8.13;;
4650;SDS011;2338;49.602;8.722;2023-02-28T15:11:52;9.67;;;7.83;;
4650;SDS011;2338;49.602;8.722;2023-02-28T15:14:39;9.57;;;8.20;;
4650;SDS011;2338;49.602;8.722;2023-02-28T15:17:28;11.17;;;8.10;;
4650;SDS011;2338;49.602;8.722;2023-02-28T15:20:14;14.50;;;8.20;;
4650;SDS011;2338;49.602;8.722;2023-02-28T15:23:02;10.50;;;7.43;;
4650;SDS011;2338;49.602;8.722;2023-02-28T15:25:49;14.50;;;7.97;;
4650;SDS011;2338;49.602;8.722;2023-02-28T15:28:35;11.83;;;8.10;;
4650;SDS011;2338;49.602;8.722;2023-02-28T15:31:23;12.10;;;8.93;;
4650;SDS011;2338;49.602;8.722;2023-02-28T15:34:18;9.60;;;7.57;;
4650;SDS011;2338;49.602;8.722;2023-02-28T15:37:06;11.83;;;7.70;;
4650;SDS011;2338;49.602;8.722;2023-02-28T15:40:12;11.00;;;8.47;;
4650;SDS011;2338;49.602;8.722;2023-02-28T15:43:06;12.33;;;7.93;;
4650;SDS011;2338;49.602;8.722;2023-02-28T15:45:58;10.60;;;9.30;;
4650;SDS011;2338;49.602;8.722;2023-02-28T15:48:49;12.20;;;9.00;;
4650;SDS011;2338;49.602;8.722;2023-02-28T15:51:36;12.10;;;8.93;;
4650;SDS011;2338;49.602;8.722;2023-02-28T15:54:23;12.63;;;8.60;;
4650;SDS011;2338;49.602;8.722;2023-02-28T15:57:13;11.13;;;8.30;;
4650;SDS011;2338;49.602;8.722;2023-02-28T16:00:06;19.50;;;9.50;;
4650;SDS011;2338;49.602;8.722;2023-02-28T16:02:56;14.00;;;9.50;;
4650;SDS011;2338;49.602;8.722;2023-02-28T16:05:41;12.63;;;8.93;;
4650;SDS011;2338;49.602;8.722;2023-02-28T16:08:27;20.07;;;8.63;;
4650;SDS011;2338;49.602;8.722;2023-02-28T16:11:13;11.73;;;9.20;;
4650;SDS011;2338;49.602;8.722;2023-02-28T16:13:58;10.82;;;8.95;;
4650;SDS011;2338;49.602;8.722;2023-02-28T16:16:46;13.17;;;8.97;;
4650;SDS011;2338;49.602;8.722;2023-02-28T16:19:35;12.43;;;8.60;;
4650;SDS011;2338;49.602;8.722;2023-02-28T16:22:20;12.50;;;8.53;;
4650;SDS011;2338;49.602;8.722;2023-02-28T16:25:07;14.20;;;10.00;;
4650;SDS011;2338;49.602;8.722;2023-02-28T16:27:55;15.07;;;8.60;;
4650;SDS011;2338;49.602;8.722;2023-02-28T16:30:44;14.70;;;8.37;;
4650;SDS011;2338;49.602;8.722;2023-02-28T16:33:31;12.85;;;8.70;;
4650;SDS011;2338;49.602;8.722;2023-02-28T16:36:19;11.13;;;8.20;;
4650;SDS011;2338;49.602;8.722;2023-02-28T16:39:05;12.87;;;8.40;;
4650;SDS011;2338;49.602;8.722;2023-02-28T16:41:51;11.53;;;8.73;;
4650;SDS011;2338;49.602;8.722;2023-02-28T16:44:37;12.20;;;9.57;;
4650;SDS011;2338;49.602;8.722;2023-02-28T16:47:23;12.77;;;8.40;;
4650;SDS011;2338;49.602;8.722;2023-02-28T16:50:13;11.63;;;9.27;;
4650;SDS011;2338;49.602;8.722;2023-02-28T16:53:00;12.00;;;9.00;;
4650;SDS011;2338;49.602;8.722;2023-02-28T16:55:46;11.65;;;8.57;;
4650;SDS011;2338;49.602;8.722;2023-02-28T16:58:32;14.60;;;9.90;;
4650;SDS011;2338;49.602;8.722;2023-02-28T17:01:19;14.82;;;9.40;;
4650;SDS011;2338;49.602;8.722;2023-02-28T17:04:05;11.68;;;9.02;;
4650;SDS011;2338;49.602;8.722;2023-02-28T17:06:52;12.40;;;9.25;;
4650;SDS011;2338;49.602;8.722;2023-02-28T17:09:38;13.57;;;9.50;;
4650;SDS011;2338;49.602;8.722;2023-02-28T17:12:24;13.00;;;9.45;;
4650;SDS011;2338;49.602;8.722;2023-02-28T17:15:10;13.10;;;8.95;;
4650;SDS011;2338;49.602;8.722;2023-02-28T17:17:57;11.80;;;8.00;;
4650;SDS011;2338;49.602;8.722;2023-02-28T17:20:42;11.63;;;8.60;;
4650;SDS011;2338;49.602;8.722;2023-02-28T17:23:29;13.63;;;8.30;;
4650;SDS011;2338;49.602;8.722;2023-02-28T17:26:16;13.40;;;9.07;;
4650;SDS011;2338;49.602;8.722;2023-02-28T17:29:05;23.57;;;8.50;;
4650;SDS011;2338;49.602;8.722;2023-02-28T17:31:56;10.87;;;8.30;;
4650;SDS011;2338;49.602;8.722;2023-02-28T17:34:42;10.50;;;7.95;;
4650;SDS011;2338;49.602;8.722;2023-02-28T17:37:29;10.32;;;8.23;;
4650;SDS011;2338;49.602;8.722;2023-02-28T17:40:17;11.80;;;8.20;;
4650;SDS011;2338;49.602;8.722;2023-02-28T17:43:04;13.02;;;8.55;;
4650;SDS011;2338;49.602;8.722;2023-02-28T17:45:50;12.65;;;8.80;;
4650;SDS011;2338;49.602;8.722;2023-02-28T17:48:36;12.63;;;8.80;;